sensor_id;sensor_type;location;lat;lon;timestamp;pressure;altitude;pressure_sealevel;temperature;humidity
64602;BME280;51013;42.630;23.192;2023-03-01T00:00:08;92706.56;;;4.71;100.00
64602;BME280;51013;42.630;23.192;2023-03-01T00:02:35;92704.53;;;4.81;100.00
64602;BME280;51013;42.630;23.192;2023-03-01T00:05:02;92710.22;;;4.70;100.00
64602;BME280;51013;42.630;23.192;2023-03-01T00:07:31;92696.31;;;4.74;100.00
64602;BME280;51013;42.630;23.192;2023-03-01T00:09:58;92690.63;;;4.72;100.00
64602;BME280;51013;42.630;23.192;2023-03-01T00:12:26;92684.69;;;4.72;100.00
64602;BME280;51013;42.630;23.192;2023-03-01T00:14:54;92685.34;;;4.64;100.00
64602;BME280;51013;42.630;23.192;2023-03-01T00:17:20;92665.72;;;4.44;100.00
64602;BME280;51013;42.630;23.192;2023-03-01T00:19:47;92666.50;;;4.44;100.00
64602;BME280;51013;42.630;23.192;2023-03-01T00:22:14;92656.25;;;4.34;100.00
64602;BME280;51013;42.630;23.192;2023-03-01T00:24:42;92666.09;;;4.37;100.00
64602;BME280;51013;42.630;23.192;2023-03-01T00:27:09;92662.94;;;4.40;100.00
64602;BME280;51013;42.630;23.192;2023-03-01T00:29:35;92654.66;;;4.38;100.00
64602;BME280;51013;42.630;23.192;2023-03-01T00:32:02;92652.06;;;4.38;100.00
64602;BME280;51013;42.630;23.192;2023-03-01T00:34:29;92651.94;;;4.29;100.00
64602;BME280;51013;42.630;23.192;2023-03-01T00:36:57;92639.53;;;4.40;100.00
64602;BME280;51013;42.630;23.192;2023-03-01T00:39:33;92642.41;;;4.25;100.00
64602;BME280;51013;42.630;23.192;2023-03-01T00:42:03;92647.22;;;4.17;100.00
64602;BME280;51013;42.630;23.192;2023-03-01T00:44:30;92649.63;;;4.14;100.00
64602;BME280;51013;42.630;23.192;2023-03-01T00:46:59;92656.28;;;4.20;100.00
64602;BME280;51013;42.630;23.192;2023-03-01T00:49:26;92655.88;;;4.13;100.00
64602;BME280;51013;42.630;23.192;2023-03-01T00:51:53;92624.97;;;3.97;100.00
64602;BME280;51013;42.630;23.192;2023-03-01T00:54:20;92663.13;;;4.16;100.00
64602;BME280;51013;42.630;23.192;2023-03-01T00:56:47;92658.09;;;4.19;100.00
64602;BME280;51013;42.630;23.192;2023-03-01T00:59:15;92669.28;;;4.20;100.00
64602;BME280;51013;42.630;23.192;2023-03-01T01:01:41;92674.25;;;4.03;100.00
64602;BME280;51013;42.630;23.192;2023-03-01T01:04:11;92659.34;;;4.08;100.00
64602;BME280;51013;42.630;23.192;2023-03-01T01:06:40;92671.78;;;4.25;100.00
64602;BME280;51013;42.630;23.192;2023-03-01T01:09:09;92658.19;;;4.14;100.00
64602;BME280;51013;42.630;23.192;2023-03-01T01:11:42;92677.38;;;4.18;100.00
64602;BME280;51013;42.630;23.192;2023-03-01T01:14:09;92668.03;;;4.31;100.00
64602;BME280;51013;42.630;23.192;2023-03-01T01:16:37;92654.81;;;4.41;100.00
64602;BME280;51013;42.630;23.192;2023-03-01T01:19:05;92657.34;;;4.47;100.00
64602;BME280;51013;42.630;23.192;2023-03-01T01:21:31;92642.78;;;4.32;100.00
64602;BME280;51013;42.630;23.192;2023-03-01T01:24:00;92661.56;;;4.56;100.00
64602;BME280;51013;42.630;23.192;2023-03-01T01:26:28;92669.53;;;4.60;100.00
64602;BME280;51013;42.630;23.192;2023-03-01T01:28:56;92653.78;;;4.56;100.00
64602;BME280;51013;42.630;23.192;2023-03-01T01:31:23;92649.06;;;4.45;100.00
64602;BME280;51013;42.630;23.192;2023-03-01T01:33:51;92671.47;;;4.68;100.00
64602;BME280;51013;42.630;23.192;2023-03-01T01:36:19;92662.50;;;4.74;100.00
64602;BME280;51013;42.630;23.192;2023-03-01T01:38:46;92670.63;;;4.73;100.00
64602;BME280;51013;42.630;23.192;2023-03-01T01:41:13;92671.09;;;4.75;100.00
64602;BME280;51013;42.630;23.192;2023-03-01T01:43:42;92660.03;;;4.55;100.00
64602;BME280;51013;42.630;23.192;2023-03-01T01:46:16;92672.53;;;4.67;100.00
64602;BME280;51013;42.630;23.192;2023-03-01T01:48:48;92676.88;;;4.58;100.00
64602;BME280;51013;42.630;23.192;2023-03-01T01:51:20;92674.00;;;4.46;100.00
64602;BME280;51013;42.630;23.192;2023-03-01T01:53:52;92662.34;;;4.29;100.00
64602;BME280;51013;42.630;23.192;2023-03-01T01:56:20;92667.94;;;4.22;100.00
64602;BME280;51013;42.630;23.192;2023-03-01T01:58:48;92656.66;;;3.99;100.00
64602;BME280;51013;42.630;23.192;2023-03-01T02:01:15;92643.44;;;3.96;100.00
64602;BME280;51013;42.630;23.192;2023-03-01T02:03:43;92647.22;;;4.17;100.00
64602;BME280;51013;42.630;23.192;2023-03-01T02:06:13;92644.91;;;4.16;100.00
64602;BME280;51013;42.630;23.192;2023-03-01T02:08:47;92647.81;;;4.14;100.00
64602;BME280;51013;42.630;23.192;2023-03-01T02:11:15;92629.13;;;4.12;100.00
64602;BME280;51013;42.630;23.192;2023-03-01T02:13:42;92621.41;;;4.07;100.00
64602;BME280;51013;42.630;23.192;2023-03-01T02:16:11;92617.34;;;4.01;100.00
64602;BME280;51013;42.630;23.192;2023-03-01T02:18:38;92623.16;;;4.12;100.00
64602;BME280;51013;42.630;23.192;2023-03-01T02:21:17;92613.91;;;4.06;100.00
64602;BME280;51013;42.630;23.192;2023-03-01T02:23:52;92620.44;;;4.03;100.00
64602;BME280;51013;42.630;23.192;2023-03-01T02:26:23;92627.25;;;3.99;100.00
64602;BME280;51013;42.630;23.192;2023-03-01T02:28:53;92625.53;;;3.94;100.00
64602;BME280;51013;42.630;23.192;2023-03-01T02:31:20;92628.13;;;3.80;100.00
64602;BME280;51013;42.630;23.192;2023-03-01T02:34:09;92629.88;;;3.99;100.00
64602;BME280;51013;42.630;23.192;2023-03-01T02:36:42;92620.91;;;4.05;100.00
64602;BME280;51013;42.630;23.192;2023-03-01T02:39:13;92621.09;;;3.95;100.00
64602;BME280;51013;42.630;23.192;2023-03-01T02:41:46;92618.69;;;3.85;100.00
64602;BME280;51013;42.630;23.192;2023-03-01T02:44:14;92610.69;;;3.81;100.00
64602;BME280;51013;42.630;23.192;2023-03-01T02:46:42;92614.81;;;3.68;100.00
64602;BME280;51013;42.630;23.192;2023-03-01T02:49:19;92615.50;;;3.74;100.00
64602;BME280;51013;42.630;23.192;2023-03-01T02:52:05;92617.81;;;3.75;100.00
64602;BME280;51013;42.630;23.192;2023-03-01T02:54:40;92614.16;;;3.76;100.00
64602;BME280;51013;42.630;23.192;2023-03-01T02:57:09;92622.22;;;3.75;100.00
64602;BME280;51013;42.630;23.192;2023-03-01T02:59:39;92629.66;;;3.68;100.00
64602;BME280;51013;42.630;23.192;2023-03-01T03:02:19;92611.53;;;3.63;100.00
64602;BME280;51013;42.630;23.192;2023-03-01T03:05:02;92611.06;;;3.74;100.00
64602;BME280;51013;42.630;23.192;2023-03-01T03:07:30;92614.84;;;3.82;100.00
64602;BME280;51013;42.630;23.192;2023-03-01T03:09:57;92620.44;;;3.75;100.00
64602;BME280;51013;42.630;23.192;2023-03-01T03:12:23;92613.13;;;3.77;100.00
64602;BME280;51013;42.630;23.192;2023-03-01T03:14:52;92620.50;;;3.70;100.00
64602;BME280;51013;42.630;23.192;2023-03-01T03:17:18;92620.31;;;3.80;100.00
64602;BME280;51013;42.630;23.192;2023-03-01T03:19:45;92616.19;;;3.79;100.00
64602;BME280;51013;42.630;23.192;2023-03-01T03:22:12;92618.88;;;3.74;100.00
64602;BME280;51013;42.630;23.192;2023-03-01T03:24:39;92590.75;;;3.63;100.00
64602;BME280;51013;42.630;23.192;2023-03-01T03:27:07;92608.84;;;3.68;100.00
64602;BME280;51013;42.630;23.192;2023-03-01T03:29:35;92610.88;;;3.71;100.00
64602;BME280;51013;42.630;23.192;2023-03-01T03:32:03;92616.06;;;3.71;100.00
64602;BME280;51013;42.630;23.192;2023-03-01T03:34:30;92613.38;;;3.62;100.00
64602;BME280;51013;42.630;23.192;2023-03-01T03:36:57;92617.59;;;3.58;100.00
64602;BME280;51013;42.630;23.192;2023-03-01T03:39:25;92601.31;;;3.52;100.00
64602;BME280;51013;42.630;23.192;2023-03-01T03:41:53;92616.06;;;3.71;100.00
64602;BME280;51013;42.630;23.192;2023-03-01T03:44:20;92628.00;;;3.72;100.00
64602;BME280;51013;42.630;23.192;2023-03-01T03:46:47;92617.38;;;3.54;100.00
64602;BME280;51013;42.630;23.192;2023-03-01T03:49:15;92602.72;;;3.45;100.00
64602;BME280;51013;42.630;23.192;2023-03-01T03:51:41;92625.97;;;3.55;100.00
64602;BME280;51013;42.630;23.192;2023-03-01T03:54:08;92623.16;;;3.51;100.00
64602;BME280;51013;42.630;23.192;2023-03-01T03:56:37;92621.41;;;3.47;100.00
64602;BME280;51013;42.630;23.192;2023-03-01T03:59:03;92624.47;;;3.49;100.00
64602;BME280;51013;42.630;23.192;2023-03-01T04:01:31;92626.03;;;3.50;100.00
64602;BME280;51013;42.630;23.192;2023-03-01T04:03:58;92632.22;;;3.54;100.00
64602;BME280;51013;42.630;23.192;2023-03-01T04:06:30;92637.41;;;3.54;100.00
64602;BME280;51013;42.630;23.192;2023-03-01T04:08:57;92634.59;;;3.50;100.00
64602;BME280;51013;42.630;23.192;2023-03-01T04:11:26;92633.34;;;3.48;100.00
64602;BME280;51013;42.630;23.192;2023-03-01T04:13:54;92636.91;;;3.52;100.00
64602;BME280;51013;42.630;23.192;2023-03-01T04:16:21;92634.34;;;3.66;100.00
64602;BME280;51013;42.630;23.192;2023-03-01T04:18:47;92637.88;;;3.56;100.00
64602;BME280;51013;42.630;23.192;2023-03-01T04:21:15;92637.81;;;3.61;100.00
64602;BME280;51013;42.630;23.192;2023-03-01T04:23:43;92613.06;;;3.50;100.00
64602;BME280;51013;42.630;23.192;2023-03-01T04:26:15;92611.44;;;3.54;100.00
64602;BME280;51013;42.630;23.192;2023-03-01T04:28:42;92642.53;;;3.59;100.00
64602;BME280;51013;42.630;23.192;2023-03-01T04:31:15;92642.34;;;3.69;100.00
64602;BME280;51013;42.630;23.192;2023-03-01T04:33:44;92628.56;;;3.69;100.00
64602;BME280;51013;42.630;23.192;2023-03-01T04:36:14;92626.94;;;3.73;100.00
64602;BME280;51013;42.630;23.192;2023-03-01T04:38:44;92629.94;;;3.66;100.00
64602;BME280;51013;42.630;23.192;2023-03-01T04:41:12;92635.88;;;3.67;100.00
64602;BME280;51013;42.630;23.192;2023-03-01T04:43:39;92629.53;;;3.73;100.00
64602;BME280;51013;42.630;23.192;2023-03-01T04:46:10;92618.28;;;3.64;100.00
64602;BME280;51013;42.630;23.192;2023-03-01T04:48:40;92621.84;;;3.68;100.00
64602;BME280;51013;42.630;23.192;2023-03-01T04:51:09;92620.28;;;3.53;100.00
64602;BME280;51013;42.630;23.192;2023-03-01T04:53:39;92616.50;;;3.45;100.00
64602;BME280;51013;42.630;23.192;2023-03-01T04:56:08;92610.03;;;3.42;100.00
64602;BME280;51013;42.630;23.192;2023-03-01T04:58:34;92622.88;;;3.53;100.00
64602;BME280;51013;42.630;23.192;2023-03-01T05:01:01;92608.28;;;3.57;100.00
64602;BME280;51013;42.630;23.192;2023-03-01T05:03:40;92582.50;;;3.28;100.00
64602;BME280;51013;42.630;23.192;2023-03-01T05:06:09;92632.00;;;3.50;100.00
64602;BME280;51013;42.630;23.192;2023-03-01T05:08:36;92637.88;;;3.56;100.00
64602;BME280;51013;42.630;23.192;2023-03-01T05:11:03;92640.69;;;3.59;100.00
64602;BME280;51013;42.630;23.192;2023-03-01T05:13:31;92641.38;;;3.65;100.00
64602;BME280;51013;42.630;23.192;2023-03-01T05:16:00;92647.06;;;3.67;100.00
64602;BME280;51013;42.630;23.192;2023-03-01T05:18:29;92640.09;;;3.63;100.00
64602;BME280;51013;42.630;23.192;2023-03-01T05:21:04;92625.84;;;3.46;100.00
64602;BME280;51013;42.630;23.192;2023-03-01T05:23:31;92653.38;;;3.47;100.00
64602;BME280;51013;42.630;23.192;2023-03-01T05:25:59;92621.22;;;3.43;100.00
64602;BME280;51013;42.630;23.192;2023-03-01T05:28:26;92626.91;;;3.45;100.00
64602;BME280;51013;42.630;23.192;2023-03-01T05:30:55;92657.16;;;3.69;100.00
64602;BME280;51013;42.630;23.192;2023-03-01T05:33:22;92647.41;;;3.60;100.00
64602;BME280;51013;42.630;23.192;2023-03-01T05:35:50;92652.91;;;3.59;100.00
64602;BME280;51013;42.630;23.192;2023-03-01T05:38:18;92652.38;;;3.76;100.00
64602;BME280;51013;42.630;23.192;2023-03-01T05:40:48;92652.28;;;3.81;100.00
64602;BME280;51013;42.630;23.192;2023-03-01T05:43:16;92658.06;;;3.78;100.00
64602;BME280;51013;42.630;23.192;2023-03-01T05:45:45;92656.50;;;3.77;100.00
64602;BME280;51013;42.630;23.192;2023-03-01T05:48:15;92612.59;;;3.61;100.00
64602;BME280;51013;42.630;23.192;2023-03-01T05:50:47;92667.63;;;3.96;100.00
64602;BME280;51013;42.630;23.192;2023-03-01T05:53:18;92671.28;;;4.09;100.00
64602;BME280;51013;42.630;23.192;2023-03-01T05:55:47;92669.53;;;4.05;100.00
64602;BME280;51013;42.630;23.192;2023-03-01T05:58:19;92675.72;;;4.09;100.00
64602;BME280;51013;42.630;23.192;2023-03-01T06:00:48;92679.66;;;4.06;100.00
64602;BME280;51013;42.630;23.192;2023-03-01T06:03:17;92685.34;;;4.08;100.00
64602;BME280;51013;42.630;23.192;2023-03-01T06:05:46;92689.31;;;4.06;100.00
64602;BME280;51013;42.630;23.192;2023-03-01T06:08:13;92693.31;;;3.98;100.00
64602;BME280;51013;42.630;23.192;2023-03-01T06:10:41;92705.19;;;4.04;100.00
64602;BME280;51013;42.630;23.192;2023-03-01T06:13:08;92697.88;;;4.06;100.00
64602;BME280;51013;42.630;23.192;2023-03-01T06:15:35;92681.38;;;3.97;100.00
64602;BME280;51013;42.630;23.192;2023-03-01T06:18:01;92706.63;;;4.10;100.00
64602;BME280;51013;42.630;23.192;2023-03-01T06:20:29;92707.31;;;4.16;100.00
64602;BME280;51013;42.630;23.192;2023-03-01T06:22:56;92705.97;;;4.18;100.00
64602;BME280;51013;42.630;23.192;2023-03-01T06:25:26;92713.19;;;4.21;100.00
64602;BME280;51013;42.630;23.192;2023-03-01T06:27:53;92705.00;;;4.14;100.00
64602;BME280;51013;42.630;23.192;2023-03-01T06:30:21;92692.88;;;4.10;100.00
64602;BME280;51013;42.630;23.192;2023-03-01T06:32:49;92701.81;;;4.17;100.00
64602;BME280;51013;42.630;23.192;2023-03-01T06:35:18;92707.63;;;4.28;100.00
64602;BME280;51013;42.630;23.192;2023-03-01T06:37:47;92706.75;;;4.33;100.00
64602;BME280;51013;42.630;23.192;2023-03-01T06:40:14;92707.03;;;4.31;100.00
64602;BME280;51013;42.630;23.192;2023-03-01T06:42:48;92706.69;;;4.38;100.00
64602;BME280;51013;42.630;23.192;2023-03-01T06:45:17;92715.03;;;4.35;100.00
64602;BME280;51013;42.630;23.192;2023-03-01T06:47:44;92708.19;;;4.39;100.00
64602;BME280;51013;42.630;23.192;2023-03-01T06:50:14;92711.88;;;4.38;100.00
64602;BME280;51013;42.630;23.192;2023-03-01T06:52:43;92714.16;;;4.39;100.00
64602;BME280;51013;42.630;23.192;2023-03-01T06:55:12;92716.94;;;4.29;100.00
64602;BME280;51013;42.630;23.192;2023-03-01T06:57:38;92708.28;;;4.34;100.00
64602;BME280;51013;42.630;23.192;2023-03-01T07:00:08;92687.00;;;4.18;100.00
64602;BME280;51013;42.630;23.192;2023-03-01T07:02:35;92713.59;;;4.43;100.00
64602;BME280;51013;42.630;23.192;2023-03-01T07:05:01;92714.66;;;4.41;100.00
64602;BME280;51013;42.630;23.192;2023-03-01T07:07:28;92716.41;;;4.32;100.00
64602;BME280;51013;42.630;23.192;2023-03-01T07:09:55;92717.91;;;4.33;100.00
64602;BME280;51013;42.630;23.192;2023-03-01T07:12:23;92711.19;;;4.32;100.00
64602;BME280;51013;42.630;23.192;2023-03-01T07:14:49;92712.25;;;4.31;100.00
64602;BME280;51013;42.630;23.192;2023-03-01T07:17:16;92709.06;;;4.34;100.00
64602;BME280;51013;42.630;23.192;2023-03-01T07:19:44;92710.03;;;4.25;100.00
64602;BME280;51013;42.630;23.192;2023-03-01T07:22:11;92675.03;;;4.03;100.00
64602;BME280;51013;42.630;23.192;2023-03-01T07:24:37;92702.97;;;4.25;100.00
64602;BME280;51013;42.630;23.192;2023-03-01T07:27:04;92700.66;;;4.24;100.00
64602;BME280;51013;42.630;23.192;2023-03-01T07:29:32;92689.69;;;4.27;100.00
64602;BME280;51013;42.630;23.192;2023-03-01T07:32:01;92698.75;;;4.43;100.00
64602;BME280;51013;42.630;23.192;2023-03-01T07:34:28;92703.47;;;4.41;100.00
64602;BME280;51013;42.630;23.192;2023-03-01T07:36:55;92704.06;;;4.52;100.00
64602;BME280;51013;42.630;23.192;2023-03-01T07:39:21;92699.03;;;4.55;100.00
64602;BME280;51013;42.630;23.192;2023-03-01T07:41:52;92710.69;;;4.58;100.00
64602;BME280;51013;42.630;23.192;2023-03-01T07:44:22;92704.53;;;4.54;100.00
64602;BME280;51013;42.630;23.192;2023-03-01T07:46:53;92685.19;;;4.46;100.00
64602;BME280;51013;42.630;23.192;2023-03-01T07:49:21;92685.00;;;4.56;100.00
64602;BME280;51013;42.630;23.192;2023-03-01T07:51:50;92703.00;;;4.67;100.00
64602;BME280;51013;42.630;23.192;2023-03-01T07:54:16;92679.97;;;4.60;100.00
64602;BME280;51013;42.630;23.192;2023-03-01T07:56:43;92695.97;;;4.67;100.00
64602;BME280;51013;42.630;23.192;2023-03-01T07:59:10;92687.41;;;4.67;99.81
64602;BME280;51013;42.630;23.192;2023-03-01T08:01:37;92679.47;;;4.72;100.00
64602;BME280;51013;42.630;23.192;2023-03-01T08:04:05;92692.19;;;4.73;99.58
64602;BME280;51013;42.630;23.192;2023-03-01T08:06:33;92677.06;;;4.75;99.30
64602;BME280;51013;42.630;23.192;2023-03-01T08:09:00;92690.06;;;4.75;99.16
64602;BME280;51013;42.630;23.192;2023-03-01T08:11:27;92692.41;;;4.77;99.01
64602;BME280;51013;42.630;23.192;2023-03-01T08:13:54;92680.16;;;4.77;98.88
64602;BME280;51013;42.630;23.192;2023-03-01T08:16:21;92686.97;;;4.87;98.52
64602;BME280;51013;42.630;23.192;2023-03-01T08:18:48;92693.34;;;4.95;98.29
64602;BME280;51013;42.630;23.192;2023-03-01T08:21:18;92687.31;;;5.08;97.53
64602;BME280;51013;42.630;23.192;2023-03-01T08:23:46;92689.50;;;5.15;96.40
64602;BME280;51013;42.630;23.192;2023-03-01T08:26:15;92688.03;;;5.22;96.53
64602;BME280;51013;42.630;23.192;2023-03-01T08:28:42;92689.03;;;5.13;95.07
64602;BME280;51013;42.630;23.192;2023-03-01T08:31:17;92671.16;;;4.97;95.69
64602;BME280;51013;42.630;23.192;2023-03-01T08:33:44;92685.25;;;5.19;95.60
64602;BME280;51013;42.630;23.192;2023-03-01T08:36:18;92674.97;;;5.14;95.01
64602;BME280;51013;42.630;23.192;2023-03-01T08:38:47;92687.66;;;5.29;94.78
64602;BME280;51013;42.630;23.192;2023-03-01T08:41:14;92670.03;;;5.12;95.26
64602;BME280;51013;42.630;23.192;2023-03-01T08:43:41;92668.50;;;5.11;94.76
64602;BME280;51013;42.630;23.192;2023-03-01T08:46:08;92682.97;;;5.40;94.86
64602;BME280;51013;42.630;23.192;2023-03-01T08:48:35;92684.50;;;5.41;94.25
64602;BME280;51013;42.630;23.192;2023-03-01T08:51:07;92688.84;;;5.46;93.75
64602;BME280;51013;42.630;23.192;2023-03-01T08:53:36;92680.81;;;5.56;92.83
64602;BME280;51013;42.630;23.192;2023-03-01T08:56:03;92674.22;;;5.58;93.53
64602;BME280;51013;42.630;23.192;2023-03-01T08:58:30;92684.97;;;5.66;92.80
64602;BME280;51013;42.630;23.192;2023-03-01T09:00:57;92659.25;;;5.64;92.81
64602;BME280;51013;42.630;23.192;2023-03-01T09:03:24;92673.31;;;5.86;92.24
64602;BME280;51013;42.630;23.192;2023-03-01T09:05:59;92683.41;;;6.01;92.86
64602;BME280;51013;42.630;23.192;2023-03-01T09:08:26;92688.63;;;6.01;90.76
64602;BME280;51013;42.630;23.192;2023-03-01T09:10:57;92692.75;;;6.02;91.98
64602;BME280;51013;42.630;23.192;2023-03-01T09:13:23;92686.50;;;6.12;90.79
64602;BME280;51013;42.630;23.192;2023-03-01T09:15:51;92682.56;;;6.14;89.70
64602;BME280;51013;42.630;23.192;2023-03-01T09:18:19;92681.72;;;6.05;90.93
64602;BME280;51013;42.630;23.192;2023-03-01T09:20:45;92673.94;;;6.14;91.16
64602;BME280;51013;42.630;23.192;2023-03-01T09:23:12;92666.03;;;6.28;89.52
64602;BME280;51013;42.630;23.192;2023-03-01T09:25:39;92668.38;;;6.38;88.96
64602;BME280;51013;42.630;23.192;2023-03-01T09:28:07;92672.38;;;6.44;88.35
64602;BME280;51013;42.630;23.192;2023-03-01T09:30:36;92670.34;;;6.32;89.10
64602;BME280;51013;42.630;23.192;2023-03-01T09:33:03;92666.09;;;6.45;88.17
64602;BME280;51013;42.630;23.192;2023-03-01T09:35:30;92644.94;;;6.55;87.92
64602;BME280;51013;42.630;23.192;2023-03-01T09:37:56;92648.31;;;6.56;87.74
64602;BME280;51013;42.630;23.192;2023-03-01T09:40:26;92664.91;;;6.69;87.92
64602;BME280;51013;42.630;23.192;2023-03-01T09:42:55;92655.72;;;6.71;86.95
64602;BME280;51013;42.630;23.192;2023-03-01T09:45:29;92660.94;;;6.71;87.43
64602;BME280;51013;42.630;23.192;2023-03-01T09:48:00;92661.41;;;6.73;85.74
64602;BME280;51013;42.630;23.192;2023-03-01T09:50:33;92659.91;;;6.90;86.88
64602;BME280;51013;42.630;23.192;2023-03-01T09:53:02;92652.66;;;6.78;85.89
64602;BME280;51013;42.630;23.192;2023-03-01T09:55:31;92648.84;;;6.84;87.14
64602;BME280;51013;42.630;23.192;2023-03-01T09:58:06;92641.16;;;6.88;85.80
64602;BME280;51013;42.630;23.192;2023-03-01T10:00:49;92643.16;;;6.91;86.25
64602;BME280;51013;42.630;23.192;2023-03-01T10:03:17;92629.94;;;6.78;87.11
64602;BME280;51013;42.630;23.192;2023-03-01T10:05:56;92641.63;;;6.90;85.01
64602;BME280;51013;42.630;23.192;2023-03-01T10:08:33;92640.25;;;6.92;85.35
64602;BME280;51013;42.630;23.192;2023-03-01T10:11:05;92640.06;;;6.97;85.69
64602;BME280;51013;42.630;23.192;2023-03-01T10:13:40;92633.34;;;6.96;84.78
64602;BME280;51013;42.630;23.192;2023-03-01T10:16:13;92605.19;;;6.85;85.06
64602;BME280;51013;42.630;23.192;2023-03-01T10:18:45;92633.34;;;7.05;85.56
64602;BME280;51013;42.630;23.192;2023-03-01T10:21:14;92627.19;;;6.92;84.78
64602;BME280;51013;42.630;23.192;2023-03-01T10:23:42;92616.56;;;6.89;84.92
64602;BME280;51013;42.630;23.192;2023-03-01T10:26:22;92628.84;;;6.71;84.91
64602;BME280;51013;42.630;23.192;2023-03-01T10:28:59;92636.38;;;6.81;85.37
64602;BME280;51013;42.630;23.192;2023-03-01T10:31:37;92635.91;;;6.79;85.82
64602;BME280;51013;42.630;23.192;2023-03-01T10:34:12;92628.53;;;6.81;86.11
64602;BME280;51013;42.630;23.192;2023-03-01T10:36:40;92629.47;;;6.76;85.66
64602;BME280;51013;42.630;23.192;2023-03-01T10:39:13;92632.06;;;6.59;85.66
64602;BME280;51013;42.630;23.192;2023-03-01T10:41:54;92630.38;;;6.63;86.21
64602;BME280;51013;42.630;23.192;2023-03-01T10:44:37;92636.06;;;6.82;86.48
64602;BME280;51013;42.630;23.192;2023-03-01T10:47:13;92610.72;;;6.57;87.31
64602;BME280;51013;42.630;23.192;2023-03-01T10:49:55;92624.06;;;6.64;87.43
64602;BME280;51013;42.630;23.192;2023-03-01T10:52:25;92621.78;;;6.80;87.00
64602;BME280;51013;42.630;23.192;2023-03-01T10:54:57;92604.28;;;6.63;86.48
64602;BME280;51013;42.630;23.192;2023-03-01T10:57:33;92608.88;;;6.66;85.91
64602;BME280;51013;42.630;23.192;2023-03-01T11:00:21;92629.63;;;6.71;86.23
64602;BME280;51013;42.630;23.192;2023-03-01T11:02:51;92628.84;;;6.71;86.81
64602;BME280;51013;42.630;23.192;2023-03-01T11:05:21;92634.84;;;6.80;88.27
64602;BME280;51013;42.630;23.192;2023-03-01T11:07:50;92622.56;;;6.89;86.60
64602;BME280;51013;42.630;23.192;2023-03-01T11:10:19;92630.56;;;6.84;86.04
64602;BME280;51013;42.630;23.192;2023-03-01T11:12:47;92634.22;;;6.83;86.06
64602;BME280;51013;42.630;23.192;2023-03-01T11:15:23;92626.09;;;6.93;85.78
64602;BME280;51013;42.630;23.192;2023-03-01T11:17:51;92618.25;;;6.93;86.19
64602;BME280;51013;42.630;23.192;2023-03-01T11:20:25;92614.41;;;6.91;86.83
64602;BME280;51013;42.630;23.192;2023-03-01T11:22:55;92619.81;;;6.86;86.40
64602;BME280;51013;42.630;23.192;2023-03-01T11:25:26;92621.63;;;6.85;86.33
64602;BME280;51013;42.630;23.192;2023-03-01T11:27:55;92612.44;;;6.96;86.50
64602;BME280;51013;42.630;23.192;2023-03-01T11:30:29;92602.47;;;6.90;85.54
64602;BME280;51013;42.630;23.192;2023-03-01T11:33:13;92605.53;;;7.00;85.79
64602;BME280;51013;42.630;23.192;2023-03-01T11:35:48;92602.47;;;6.90;85.42
64602;BME280;51013;42.630;23.192;2023-03-01T11:38:20;92572.78;;;6.94;86.30
64602;BME280;51013;42.630;23.192;2023-03-01T11:40:51;92584.47;;;7.14;85.46
64602;BME280;51013;42.630;23.192;2023-03-01T11:43:23;92594.16;;;7.14;85.10
64602;BME280;51013;42.630;23.192;2023-03-01T11:46:20;92569.56;;;6.89;85.86
64602;BME280;51013;42.630;23.192;2023-03-01T11:49:12;92573.09;;;7.19;86.87
64602;BME280;51013;42.630;23.192;2023-03-01T11:51:49;92574.63;;;7.20;85.88
64602;BME280;51013;42.630;23.192;2023-03-01T11:54:30;92564.19;;;7.20;84.69
64602;BME280;51013;42.630;23.192;2023-03-01T11:57:07;92555.75;;;7.06;84.71
64602;BME280;51013;42.630;23.192;2023-03-01T11:59:45;92559.88;;;7.07;84.96
64602;BME280;51013;42.630;23.192;2023-03-01T12:05:46;92563.41;;;6.93;85.63
64602;BME280;51013;42.630;23.192;2023-03-01T12:08:20;92551.88;;;7.03;84.98
64602;BME280;51013;42.630;23.192;2023-03-01T12:10:56;92564.34;;;7.06;84.63
64602;BME280;51013;42.630;23.192;2023-03-01T12:13:50;92559.88;;;7.07;85.03
64602;BME280;51013;42.630;23.192;2023-03-01T12:16:37;92565.41;;;7.05;84.56
64602;BME280;51013;42.630;23.192;2023-03-01T12:19:26;92563.25;;;7.07;85.57
64602;BME280;51013;42.630;23.192;2023-03-01T12:22:12;92558.34;;;7.14;85.13
64602;BME280;51013;42.630;23.192;2023-03-01T12:27:59;92556.19;;;7.16;85.12
64602;BME280;51013;42.630;23.192;2023-03-01T12:30:38;92561.88;;;7.18;83.40
64602;BME280;51013;42.630;23.192;2023-03-01T12:33:17;92558.19;;;7.28;84.50
64602;BME280;51013;42.630;23.192;2023-03-01T12:39:02;92554.31;;;7.43;83.64
64602;BME280;51013;42.630;23.192;2023-03-01T12:41:43;92554.28;;;7.52;83.96
64602;BME280;51013;42.630;23.192;2023-03-01T12:44:24;92554.28;;;7.52;83.44
64602;BME280;51013;42.630;23.192;2023-03-01T12:47:07;92540.94;;;7.36;83.61
64602;BME280;51013;42.630;23.192;2023-03-01T12:49:40;92544.75;;;7.47;83.21
64602;BME280;51013;42.630;23.192;2023-03-01T12:52:14;92544.28;;;7.54;83.00
64602;BME280;51013;42.630;23.192;2023-03-01T12:54:45;92553.47;;;7.69;83.49
64602;BME280;51013;42.630;23.192;2023-03-01T12:57:15;92557.47;;;7.66;83.70
64602;BME280;51013;42.630;23.192;2023-03-01T12:59:51;92563.06;;;7.47;82.37
64602;BME280;51013;42.630;23.192;2023-03-01T13:02:33;92562.91;;;7.52;82.80
64602;BME280;51013;42.630;23.192;2023-03-01T13:05:17;92559.97;;;7.54;82.82
64602;BME280;51013;42.630;23.192;2023-03-01T13:07:53;92557.41;;;7.36;84.21
64602;BME280;51013;42.630;23.192;2023-03-01T13:10:26;92561.25;;;7.30;83.89
64602;BME280;51013;42.630;23.192;2023-03-01T13:13:12;92564.91;;;7.38;84.50
64602;BME280;51013;42.630;23.192;2023-03-01T13:15:39;92554.75;;;7.45;82.75
64602;BME280;51013;42.630;23.192;2023-03-01T13:18:28;92561.38;;;7.42;83.73
64602;BME280;51013;42.630;23.192;2023-03-01T13:20:57;92569.84;;;7.48;83.12